Marselisborg — A8VR8 — position and weather

sailwx.info

Track history (hours):
 
Tides and Currents Weather Stations Pressure Air Temp Water Temp Dewpoint Dewpoint Depression Visibility Wind Speed Wind Dir Waves Ship Positions

Marselisborg

Last reported at 2014-Oct-01 14:26 UTC. Time now 2014-Oct-02 04:34 UTC.
Position N 09°03' E 123°41'.

Length 138 m; draft 6.6 m.

Type: Ship (hazmat cat A). MMSI: 636092036.

Date/timePositionNaut miles runAvg speedWind from/ knotsBaromVisibWave heightAir tempDewpointWater temp
2014-Oct-01 14:26N 09°03' E 123°41'1213.3
2014-Oct-01 13:34N 09°01' E 123°30'1313.1
2014-Oct-01 12:34N 08°58' E 123°17'2512.4
2014-Oct-01 10:33N 08°53' E 122°52'  
2014-Sep-27 11:17N 01°15' E 104°10'1013.3
2014-Sep-27 10:33N 01°14' E 104°01'1413.8
2014-Sep-27 09:33N 01°09' E 103°48'1212.0
2014-Sep-27 08:33N 01°04' E 103°37'7 7.3
2014-Sep-27 07:33N 01°11' E 103°38'4 2.8
2014-Sep-27 06:10N 01°11' E 103°42'0 0.0
2014-Sep-27 04:28N 01°11' E 103°42'0 0.1
2014-Sep-27 03:31N 01°11' E 103°42'0 0.0
2014-Sep-27 02:04N 01°11' E 103°42'0 0.0
2014-Sep-27 01:31N 01°11' E 103°42'0 0.0
2014-Sep-27 00:31N 01°11' E 103°42'0 0.0
2014-Sep-26 23:31N 01°11' E 103°42'0 0.0
2014-Sep-26 22:31N 01°11' E 103°42'0 0.0
2014-Sep-26 21:31N 01°11' E 103°42'0 0.0
2014-Sep-26 20:31N 01°11' E 103°42'0 0.0
2014-Sep-26 19:31N 01°11' E 103°42'0 0.1
2014-Sep-26 18:31N 01°11' E 103°42'0 0.1
2014-Sep-26 17:31N 01°11' E 103°42'0 0.0
2014-Sep-26 16:31N 01°11' E 103°42'0 0.0
2014-Sep-26 15:31N 01°11' E 103°42'0 0.1
2014-Sep-26 14:31N 01°11' E 103°42'0 0.0
2014-Sep-26 13:31N 01°11' E 103°42'0 0.0
2014-Sep-26 12:31N 01°11' E 103°42'0 0.0
2014-Sep-26 11:28N 01°11' E 103°42'0 0.1
2014-Sep-26 10:31N 01°11' E 103°42'0 0.1
2014-Sep-26 09:28N 01°11' E 103°42'0 0.0
2014-Sep-26 08:31N 01°11' E 103°42'0 0.0
2014-Sep-26 06:31N 01°11' E 103°42'0 0.0
2014-Sep-26 05:28N 01°11' E 103°42'0 0.0
2014-Sep-26 04:22N 01°11' E 103°42'0 0.0
2014-Sep-26 03:31N 01°11' E 103°42'0 0.0
2014-Sep-26 02:28N 01°11' E 103°42'1 1.2
2014-Sep-26 01:33N 01°10' E 103°42'9 9.1
2014-Sep-26 00:33N 01°12' E 103°51'1211.6
2014-Sep-25 23:33N 01°16' E 104°02'  
Track history (hours):
 
Tides and Currents Weather Stations Pressure Air Temp Water Temp Dewpoint Dewpoint Depression Visibility Wind Speed Wind Dir Waves Ship Positions

Marselisborg

Last reported at 2014-Oct-01 14:26 UTC. Time now 2014-Oct-02 04:34 UTC.
Position N 09°03' E 123°41'.

Length 138 m; draft 6.6 m.

Type: Ship (hazmat cat A). MMSI: 636092036.

Date/timePositionNaut miles runAvg speedWind from/ knotsBaromVisibWave heightAir tempDewpointWater temp
2014-Oct-01 14:26N 09°03' E 123°41'1213.3
2014-Oct-01 13:34N 09°01' E 123°30'1313.1
2014-Oct-01 12:34N 08°58' E 123°17'2512.4
2014-Oct-01 10:33N 08°53' E 122°52'  
2014-Sep-27 11:17N 01°15' E 104°10'1013.3
2014-Sep-27 10:33N 01°14' E 104°01'1413.8
2014-Sep-27 09:33N 01°09' E 103°48'1212.0
2014-Sep-27 08:33N 01°04' E 103°37'7 7.3
2014-Sep-27 07:33N 01°11' E 103°38'4 2.8
2014-Sep-27 06:10N 01°11' E 103°42'0 0.0
2014-Sep-27 04:28N 01°11' E 103°42'0 0.1
2014-Sep-27 03:31N 01°11' E 103°42'0 0.0
2014-Sep-27 02:04N 01°11' E 103°42'0 0.0
2014-Sep-27 01:31N 01°11' E 103°42'0 0.0
2014-Sep-27 00:31N 01°11' E 103°42'0 0.0
2014-Sep-26 23:31N 01°11' E 103°42'0 0.0
2014-Sep-26 22:31N 01°11' E 103°42'0 0.0
2014-Sep-26 21:31N 01°11' E 103°42'0 0.0
2014-Sep-26 20:31N 01°11' E 103°42'0 0.0
2014-Sep-26 19:31N 01°11' E 103°42'0 0.1
2014-Sep-26 18:31N 01°11' E 103°42'0 0.1
2014-Sep-26 17:31N 01°11' E 103°42'0 0.0
2014-Sep-26 16:31N 01°11' E 103°42'0 0.0
2014-Sep-26 15:31N 01°11' E 103°42'0 0.1
2014-Sep-26 14:31N 01°11' E 103°42'0 0.0
2014-Sep-26 13:31N 01°11' E 103°42'0 0.0
2014-Sep-26 12:31N 01°11' E 103°42'0 0.0
2014-Sep-26 11:28N 01°11' E 103°42'0 0.1
2014-Sep-26 10:31N 01°11' E 103°42'0 0.1
2014-Sep-26 09:28N 01°11' E 103°42'0 0.0
2014-Sep-26 08:31N 01°11' E 103°42'0 0.0
2014-Sep-26 06:31N 01°11' E 103°42'0 0.0
2014-Sep-26 05:28N 01°11' E 103°42'0 0.0
2014-Sep-26 04:22N 01°11' E 103°42'0 0.0
2014-Sep-26 03:31N 01°11' E 103°42'0 0.0
2014-Sep-26 02:28N 01°11' E 103°42'1 1.2
2014-Sep-26 01:33N 01°10' E 103°42'9 9.1
2014-Sep-26 00:33N 01°12' E 103°51'1211.6
2014-Sep-25 23:33N 01°16' E 104°02'  

Dump ship's entire track history